createdAt,value
2018-12-12T00:00:19.490Z,48.34
2018-12-12T00:02:46.217Z,48.03
2018-12-12T00:05:12.142Z,48.31
2018-12-12T00:07:38.068Z,48.12
2018-12-12T00:10:04.237Z,48.27
2018-12-12T00:12:31.167Z,48.14
2018-12-12T00:14:57.100Z,48.45
2018-12-12T00:17:24.018Z,48.39
2018-12-12T00:19:50.776Z,49.14
2018-12-12T00:22:17.630Z,48.50
2018-12-12T00:24:44.367Z,49.22
2018-12-12T00:27:10.303Z,48.61
2018-12-12T00:29:37.047Z,48.79
2018-12-12T00:32:03.929Z,48.33
2018-12-12T00:34:31.601Z,49.02
2018-12-12T00:36:57.571Z,49.43
2018-12-12T00:39:23.501Z,48.79
2018-12-12T00:41:49.464Z,48.68
2018-12-12T00:44:16.324Z,48.72
2018-12-12T00:46:43.498Z,48.71
2018-12-12T00:49:09.579Z,48.24
2018-12-12T00:51:35.653Z,48.55
2018-12-12T00:54:01.588Z,49.29
2018-12-12T00:56:27.520Z,49.42
2018-12-12T00:58:53.457Z,49.11
2018-12-12T01:01:19.380Z,48.91
2018-12-12T01:03:45.307Z,48.31
2018-12-12T01:06:11.270Z,48.65
2018-12-12T01:08:37.249Z,48.50
2018-12-12T01:11:09.374Z,48.80
2018-12-12T01:13:35.314Z,48.93
2018-12-12T01:16:01.381Z,49.14
2018-12-12T01:18:27.317Z,48.49
2018-12-12T01:20:54.224Z,48.91
2018-12-12T01:23:20.197Z,49.68
2018-12-12T01:25:46.120Z,49.09
2018-12-12T01:28:12.109Z,48.50
2018-12-12T01:30:38.878Z,49.18
2018-12-12T01:33:04.856Z,48.93
2018-12-12T01:35:31.175Z,48.81
2018-12-12T01:37:57.111Z,49.32
2018-12-12T01:40:23.045Z,49.35
2018-12-12T01:42:48.971Z,48.51
2018-12-12T01:45:15.812Z,48.45
2018-12-12T01:47:42.734Z,49.91
2018-12-12T01:50:09.500Z,48.42
2018-12-12T01:52:35.429Z,49.04
2018-12-12T01:55:02.199Z,49.25
2018-12-12T01:57:29.017Z,49.50
2018-12-12T01:59:56.097Z,48.79
2018-12-12T02:02:22.976Z,48.32
2018-12-12T02:04:49.744Z,49.48
2018-12-12T02:07:15.863Z,49.03
2018-12-12T02:09:42.698Z,48.74
2018-12-12T02:12:08.635Z,49.04
2018-12-12T02:14:35.446Z,49.00
2018-12-12T02:17:01.390Z,48.60
2018-12-12T02:19:27.322Z,48.54
2018-12-12T02:21:54.101Z,48.83
2018-12-12T02:24:20.023Z,48.86
2018-12-12T02:26:45.948Z,48.73
2018-12-12T02:29:11.869Z,49.35
2018-12-12T02:31:37.794Z,48.91
2018-12-12T02:34:03.724Z,49.03
2018-12-12T02:36:30.628Z,48.75
2018-12-12T02:38:57.407Z,49.31
2018-12-12T02:41:23.341Z,48.78
2018-12-12T02:43:49.247Z,48.89
2018-12-12T02:46:16.064Z,48.86
2018-12-12T02:48:43.056Z,49.14
2018-12-12T02:51:09.995Z,48.48
2018-12-12T02:53:36.855Z,49.07
2018-12-12T02:56:02.887Z,50.05
2018-12-12T02:58:29.712Z,49.35
2018-12-12T03:00:55.644Z,49.23
2018-12-12T03:03:22.408Z,48.45
2018-12-12T03:05:48.328Z,49.17
2018-12-12T03:08:15.268Z,48.52
2018-12-12T03:10:41.240Z,49.16
2018-12-12T03:13:07.134Z,48.94
2018-12-12T03:15:33.964Z,48.71
2018-12-12T03:17:59.889Z,49.03
2018-12-12T03:20:26.843Z,48.59
2018-12-12T03:22:53.912Z,49.68
2018-12-12T03:25:19.834Z,48.96
2018-12-12T03:27:45.756Z,48.76
2018-12-12T03:30:11.739Z,48.89
2018-12-12T03:32:37.668Z,48.48
2018-12-12T03:35:04.761Z,48.72
2018-12-12T03:37:31.421Z,49.31
2018-12-12T03:39:58.343Z,48.99
2018-12-12T03:42:24.769Z,48.61
2018-12-12T03:44:51.642Z,48.91
2018-12-12T03:47:17.576Z,48.79
2018-12-12T03:49:43.510Z,49.00
2018-12-12T03:52:09.427Z,50.06
2018-12-12T03:54:35.374Z,49.48
2018-12-12T03:57:02.187Z,49.09
2018-12-12T03:59:28.120Z,48.68
2018-12-12T04:01:54.935Z,49.11
2018-12-12T04:04:21.829Z,48.85
2018-12-12T04:06:47.762Z,48.84
2018-12-12T04:09:13.735Z,49.22
2018-12-12T04:11:40.486Z,49.40
2018-12-12T04:14:06.475Z,49.20
2018-12-12T04:16:32.554Z,49.30
2018-12-12T04:18:59.705Z,49.03
2018-12-12T04:21:26.546Z,49.00
2018-12-12T04:23:53.427Z,48.94
2018-12-12T04:26:19.365Z,48.71
2018-12-12T04:28:45.298Z,48.80
2018-12-12T04:31:11.222Z,48.99
2018-12-12T04:33:37.151Z,48.89
2018-12-12T04:36:03.083Z,49.25
2018-12-12T04:38:29.029Z,48.77
2018-12-12T04:40:54.965Z,49.18
2018-12-12T04:43:21.878Z,49.23
2018-12-12T04:45:47.886Z,48.72
2018-12-12T04:48:14.609Z,49.28
2018-12-12T04:50:41.351Z,49.17
2018-12-12T04:53:08.114Z,48.81
2018-12-12T04:55:34.865Z,48.98
2018-12-12T04:58:01.718Z,48.97
2018-12-12T05:00:27.689Z,48.84
2018-12-12T05:02:54.104Z,49.08
2018-12-12T05:05:21.002Z,49.41
2018-12-12T05:07:46.915Z,48.63
2018-12-12T05:10:12.854Z,48.69
2018-12-12T05:12:38.777Z,49.34
2018-12-12T05:15:04.770Z,48.97
2018-12-12T05:17:31.543Z,48.55
2018-12-12T05:19:58.324Z,49.27
2018-12-12T05:22:25.115Z,48.83
2018-12-12T05:24:51.048Z,49.27
2018-12-12T05:27:16.994Z,48.47
2018-12-12T05:29:42.916Z,49.25
2018-12-12T05:32:09.657Z,49.12
2018-12-12T05:34:35.609Z,49.41
2018-12-12T05:37:01.535Z,49.04
2018-12-12T05:39:27.470Z,48.65
2018-12-12T05:41:53.399Z,48.44
2018-12-12T05:44:20.272Z,48.70
2018-12-12T05:46:46.154Z,48.38
2018-12-12T05:49:18.987Z,48.52
2018-12-12T05:51:44.922Z,49.04
2018-12-12T05:54:10.858Z,49.01
2018-12-12T05:56:36.784Z,48.63
2018-12-12T05:59:02.846Z,48.64
2018-12-12T06:01:28.758Z,48.57
2018-12-12T06:03:54.713Z,48.68
2018-12-12T06:06:20.646Z,49.09
2018-12-12T06:08:46.572Z,49.31
2018-12-12T06:11:12.517Z,48.99
2018-12-12T06:13:39.541Z,48.45
2018-12-12T06:16:06.460Z,48.69
2018-12-12T06:18:33.250Z,48.32
2018-12-12T06:20:59.945Z,48.55
2018-12-12T06:23:25.963Z,48.77
2018-12-12T06:25:52.842Z,48.47
2018-12-12T06:28:19.729Z,48.54
2018-12-12T06:30:46.583Z,48.80
2018-12-12T06:33:13.411Z,48.71
2018-12-12T06:35:40.230Z,49.10
2018-12-12T06:38:07.013Z,48.26
2018-12-12T06:40:32.946Z,48.37
2018-12-12T06:42:59.252Z,48.45
2018-12-12T06:45:26.034Z,48.23
2018-12-12T06:47:51.963Z,48.41
2018-12-12T06:50:18.727Z,48.42
2018-12-12T06:52:44.738Z,48.38
2018-12-12T06:55:11.523Z,48.63
2018-12-12T06:57:38.358Z,48.04
2018-12-12T07:00:04.972Z,47.95
2018-12-12T07:02:32.791Z,48.68
2018-12-12T07:04:58.738Z,48.15
2018-12-12T07:07:24.954Z,47.99
2018-12-12T07:09:50.888Z,47.67
2018-12-12T07:12:16.824Z,47.99
2018-12-12T07:14:43.692Z,47.76
2018-12-12T07:17:09.667Z,47.89
2018-12-12T07:19:36.579Z,47.91
2018-12-12T07:22:02.599Z,47.83
2018-12-12T07:24:29.442Z,48.04
2018-12-12T07:26:56.304Z,47.35
2018-12-12T07:29:23.211Z,47.80
2018-12-12T07:31:49.153Z,48.14
2018-12-12T07:34:15.221Z,47.69
2018-12-12T07:36:42.166Z,47.78
2018-12-12T07:39:08.985Z,48.10
2018-12-12T07:41:35.938Z,47.58
2018-12-12T07:44:02.035Z,47.69
2018-12-12T07:46:28.209Z,47.53
2018-12-12T07:48:54.229Z,47.95
2018-12-12T07:51:20.950Z,47.76
2018-12-12T07:53:47.785Z,48.27
2018-12-12T07:56:13.719Z,47.99
2018-12-12T07:58:40.605Z,47.86
2018-12-12T08:01:06.591Z,47.73
2018-12-12T08:03:33.365Z,47.78
2018-12-12T08:05:59.345Z,48.14
2018-12-12T08:08:26.231Z,47.87
2018-12-12T08:10:53.169Z,47.37
2018-12-12T08:13:19.075Z,47.71
2018-12-12T08:18:37.776Z,47.72
2018-12-12T08:21:04.612Z,47.74
2018-12-12T08:23:31.615Z,47.71
2018-12-12T08:25:57.694Z,47.58
2018-12-12T08:28:24.484Z,48.07
2018-12-12T08:30:51.230Z,48.22
2018-12-12T08:33:17.963Z,47.99
2018-12-12T08:35:44.790Z,47.75
2018-12-12T08:38:11.536Z,47.61
2018-12-12T08:40:37.520Z,47.66
2018-12-12T08:43:04.399Z,47.99
2018-12-12T08:45:31.252Z,48.07
2018-12-12T08:47:58.058Z,48.01
2018-12-12T08:50:23.998Z,48.05
2018-12-12T08:52:49.944Z,48.10
2018-12-12T08:55:17.757Z,48.09
2018-12-12T08:57:43.933Z,47.81
2018-12-12T09:00:09.882Z,48.10
2018-12-12T09:02:36.351Z,47.73
2018-12-12T09:05:02.377Z,48.73
2018-12-12T09:07:28.524Z,49.07
2018-12-12T09:09:54.624Z,48.75
2018-12-12T09:12:21.566Z,48.04
2018-12-12T09:14:48.124Z,49.21
2018-12-12T09:17:15.246Z,48.17
2018-12-12T09:19:41.320Z,48.79
2018-12-12T09:22:08.601Z,48.62
2018-12-12T09:24:35.005Z,48.33
2018-12-12T09:27:01.728Z,47.93
2018-12-12T09:29:28.797Z,49.19
2018-12-12T09:31:54.929Z,49.20
2018-12-12T09:34:21.921Z,49.30
2018-12-12T09:36:48.920Z,48.42
2018-12-12T09:39:15.713Z,49.00
2018-12-12T09:41:41.906Z,48.63
2018-12-12T09:44:08.002Z,48.63
2018-12-12T09:46:34.938Z,48.61
2018-12-12T09:49:03.221Z,48.35
2018-12-12T09:51:30.859Z,48.51
2018-12-12T09:53:57.797Z,48.38
2018-12-12T09:56:23.850Z,48.27
2018-12-12T09:58:50.675Z,48.38
2018-12-12T10:01:16.934Z,48.12
2018-12-12T10:03:43.013Z,48.40
2018-12-12T10:06:09.996Z,48.13
2018-12-12T10:08:36.146Z,48.36
2018-12-12T10:11:03.336Z,47.98
2018-12-12T10:13:29.485Z,48.04
2018-12-12T10:15:56.506Z,48.75
2018-12-12T10:18:22.669Z,48.40
2018-12-12T10:20:48.798Z,48.27
2018-12-12T10:23:15.783Z,48.99
2018-12-12T10:25:41.937Z,48.24
2018-12-12T10:28:08.775Z,48.17
2018-12-12T10:30:35.166Z,49.15
2018-12-12T10:33:02.435Z,48.54
2018-12-12T10:35:28.695Z,48.50
2018-12-12T10:37:55.605Z,48.21
2018-12-12T10:40:21.512Z,48.22
2018-12-12T10:42:47.452Z,48.21
2018-12-12T10:45:14.334Z,48.06
2018-12-12T10:47:40.259Z,48.27
2018-12-12T10:50:07.271Z,48.00
2018-12-12T10:52:33.323Z,48.61
2018-12-12T10:54:59.257Z,47.91
2018-12-12T10:57:25.174Z,47.86
2018-12-12T10:59:51.916Z,48.24
2018-12-12T11:02:23.870Z,48.28
2018-12-12T11:04:49.797Z,48.27
2018-12-12T11:07:15.718Z,47.95
2018-12-12T11:09:41.650Z,48.00
2018-12-12T11:12:08.606Z,48.07
2018-12-12T11:14:34.542Z,48.11
2018-12-12T11:17:01.106Z,47.85
2018-12-12T11:19:27.049Z,48.25
2018-12-12T11:21:52.975Z,47.68
2018-12-12T11:24:18.905Z,47.81
2018-12-12T11:26:44.870Z,47.73
2018-12-12T11:29:11.804Z,47.60
2018-12-12T11:31:37.786Z,47.93
2018-12-12T11:34:04.598Z,48.11
2018-12-12T11:36:31.345Z,47.85
2018-12-12T11:38:57.286Z,47.55
2018-12-12T11:41:23.224Z,47.60
2018-12-12T11:43:49.177Z,47.41
2018-12-12T11:46:15.110Z,47.60
2018-12-12T11:48:41.044Z,47.66
2018-12-12T11:51:06.969Z,47.37
2018-12-12T11:53:32.897Z,47.32
2018-12-12T11:55:58.869Z,47.17
2018-12-12T11:58:25.746Z,47.37
2018-12-12T12:00:52.697Z,47.32
2018-12-12T12:03:18.643Z,47.60
2018-12-12T12:05:44.633Z,47.22
2018-12-12T12:08:11.400Z,47.23
2018-12-12T12:10:37.408Z,46.92
2018-12-12T12:13:04.176Z,47.53
2018-12-12T12:15:31.106Z,47.23
2018-12-12T12:17:57.052Z,47.35
2018-12-12T12:20:23.033Z,47.00
2018-12-12T12:22:48.958Z,46.81
2018-12-12T12:25:14.924Z,47.09
2018-12-12T12:27:41.884Z,46.90
2018-12-12T12:30:08.685Z,47.28
2018-12-12T12:32:35.545Z,47.58
2018-12-12T12:35:02.596Z,47.16
2018-12-12T12:37:29.381Z,47.18
2018-12-12T12:39:56.464Z,47.34
2018-12-12T12:42:22.484Z,47.32
2018-12-12T12:44:48.562Z,46.78
2018-12-12T12:47:14.482Z,47.11
2018-12-12T12:49:40.452Z,47.41
2018-12-12T12:52:06.397Z,47.04
2018-12-12T12:54:33.375Z,46.90
2018-12-12T12:57:01.293Z,47.13
2018-12-12T12:59:28.150Z,47.10
2018-12-12T13:01:54.089Z,46.74
2018-12-12T13:04:20.059Z,46.58
2018-12-12T13:06:45.988Z,46.42
2018-12-12T13:09:11.939Z,46.80
2018-12-12T13:11:45.728Z,47.27
2018-12-12T13:14:12.670Z,46.99
2018-12-12T13:16:38.816Z,47.02
2018-12-12T13:19:05.660Z,46.91
2018-12-12T13:21:31.589Z,46.74
2018-12-12T13:23:57.532Z,47.00
2018-12-12T13:26:24.473Z,47.13
2018-12-12T13:28:50.447Z,46.64
2018-12-12T13:31:17.234Z,46.71
2018-12-12T13:33:43.173Z,46.77
2018-12-12T13:36:09.118Z,46.52
2018-12-12T13:38:35.064Z,46.40
2018-12-12T13:41:01.624Z,46.69
2018-12-12T13:43:28.610Z,46.86
2018-12-12T13:45:54.550Z,46.47
2018-12-12T13:48:20.487Z,47.07
2018-12-12T13:50:46.414Z,46.44
2018-12-12T13:53:12.303Z,46.99
2018-12-12T13:55:38.217Z,46.93
2018-12-12T13:58:04.098Z,46.48
2018-12-12T14:00:30.007Z,46.38
2018-12-12T14:02:57.105Z,46.22
2018-12-12T14:05:23.106Z,46.97
2018-12-12T14:07:49.044Z,46.14
2018-12-12T14:10:15.951Z,46.65
2018-12-12T14:12:42.804Z,46.24
2018-12-12T14:15:09.570Z,46.29
2018-12-12T14:17:35.500Z,46.27
2018-12-12T14:20:01.429Z,46.75
2018-12-12T14:22:27.378Z,46.59
2018-12-12T14:24:53.318Z,46.24
2018-12-12T14:27:19.275Z,46.38
2018-12-12T14:29:45.213Z,46.37
2018-12-12T14:32:11.150Z,46.33
2018-12-12T14:34:37.076Z,46.34
2018-12-12T14:37:03.172Z,46.46
2018-12-12T14:39:29.226Z,46.88
2018-12-12T14:41:56.179Z,46.38
2018-12-12T14:44:22.945Z,46.68
2018-12-12T14:46:48.892Z,46.41
2018-12-12T14:49:14.868Z,46.38
2018-12-12T14:51:40.808Z,46.40
2018-12-12T14:54:06.787Z,46.33
2018-12-12T14:56:33.670Z,46.42
2018-12-12T14:58:59.642Z,46.85
2018-12-12T15:01:25.580Z,46.58
2018-12-12T15:03:51.522Z,46.54
2018-12-12T15:06:18.264Z,46.74
2018-12-12T15:08:45.080Z,46.40
2018-12-12T15:11:11.041Z,46.47
2018-12-12T15:13:37.013Z,46.43
2018-12-12T15:16:03.921Z,46.97
2018-12-12T15:18:31.213Z,47.01
2018-12-12T15:20:57.144Z,46.46
2018-12-12T15:23:23.998Z,46.61
2018-12-12T15:25:50.940Z,46.39
2018-12-12T15:28:16.877Z,46.71
2018-12-12T15:30:43.683Z,46.34
2018-12-12T15:33:10.424Z,46.84
2018-12-12T15:35:37.345Z,46.49
2018-12-12T15:38:04.308Z,46.57
2018-12-12T15:40:31.406Z,46.33
2018-12-12T15:42:58.366Z,46.45
2018-12-12T15:45:24.327Z,46.22
2018-12-12T15:47:51.094Z,46.68
2018-12-12T15:50:17.052Z,46.45
2018-12-12T15:52:42.986Z,46.57
2018-12-12T15:55:08.924Z,46.59
2018-12-12T15:57:35.893Z,46.17
2018-12-12T16:00:03.407Z,46.50
2018-12-12T16:02:29.345Z,46.62
2018-12-12T16:04:55.294Z,46.58
2018-12-12T16:07:21.244Z,46.58
2018-12-12T16:09:47.371Z,46.40
2018-12-12T16:12:13.283Z,46.85
2018-12-12T16:14:39.335Z,46.67
2018-12-12T16:17:05.744Z,46.57
2018-12-12T16:19:31.836Z,46.59
2018-12-12T16:21:57.907Z,46.60
2018-12-12T16:24:25.079Z,45.91
2018-12-12T16:26:51.115Z,46.65
2018-12-12T16:29:17.173Z,46.21
2018-12-12T16:31:43.398Z,46.68
2018-12-12T16:34:09.446Z,46.23
2018-12-12T16:36:35.538Z,46.06
2018-12-12T16:39:01.495Z,46.43
2018-12-12T16:41:27.610Z,46.06
2018-12-12T16:43:53.572Z,46.50
2018-12-12T16:46:19.518Z,46.91
2018-12-12T16:48:45.507Z,46.09
2018-12-12T16:51:11.537Z,46.14
2018-12-12T16:53:37.630Z,45.91
2018-12-12T16:56:03.839Z,46.09
2018-12-12T16:58:29.883Z,45.76
2018-12-12T17:00:55.823Z,46.13
2018-12-12T17:03:21.757Z,46.06
2018-12-12T17:05:48.574Z,47.06
2018-12-12T17:08:14.516Z,45.61
2018-12-12T17:10:40.489Z,45.44
2018-12-12T17:13:06.421Z,45.76
2018-12-12T17:15:32.361Z,45.35
2018-12-12T17:17:59.335Z,45.71
2018-12-12T17:20:25.276Z,45.75
2018-12-12T17:22:51.230Z,45.60
2018-12-12T17:25:17.233Z,45.66
2018-12-12T17:27:44.020Z,45.65
2018-12-12T17:30:10.111Z,45.70
2018-12-12T17:32:36.127Z,45.58
2018-12-12T17:35:08.685Z,45.65
2018-12-12T17:37:33.077Z,45.48
2018-12-12T17:39:59.053Z,45.40
2018-12-12T17:42:24.987Z,45.46
2018-12-12T17:44:51.092Z,45.58
2018-12-12T17:47:17.030Z,45.50
2018-12-12T17:49:42.973Z,45.42
2018-12-12T17:52:08.930Z,45.39
2018-12-12T17:54:34.915Z,45.42
2018-12-12T17:57:01.932Z,45.45
2018-12-12T17:59:27.877Z,45.21
2018-12-12T18:01:53.987Z,45.78
2018-12-12T18:04:19.925Z,45.48
2018-12-12T18:06:45.866Z,45.09
2018-12-12T18:09:11.853Z,44.83
2018-12-12T18:11:37.807Z,44.52
2018-12-12T18:14:04.591Z,44.78
2018-12-12T18:16:31.698Z,44.17
2018-12-12T18:18:58.550Z,44.21
2018-12-12T18:21:25.476Z,44.19
2018-12-12T18:23:51.420Z,44.47
2018-12-12T18:26:17.388Z,44.29
2018-12-12T18:28:43.337Z,44.17
2018-12-12T18:31:09.330Z,44.11
2018-12-12T18:33:35.366Z,43.90
2018-12-12T18:36:01.318Z,44.16
2018-12-12T18:38:27.255Z,44.13
2018-12-12T18:40:53.201Z,43.72
2018-12-12T18:43:20.102Z,43.84
2018-12-12T18:45:46.044Z,43.65
2018-12-12T18:48:11.994Z,44.29
2018-12-12T18:50:37.935Z,43.98
2018-12-12T18:53:03.886Z,44.35
2018-12-12T18:55:29.831Z,43.69
2018-12-12T18:57:56.653Z,44.58
2018-12-12T19:00:23.578Z,43.61
2018-12-12T19:02:50.330Z,43.75
2018-12-12T19:05:17.146Z,43.71
2018-12-12T19:07:43.073Z,43.42
2018-12-12T19:10:09.873Z,43.70
2018-12-12T19:12:36.652Z,43.68
2018-12-12T19:15:04.907Z,43.96
2018-12-12T19:17:31.361Z,43.83
2018-12-12T19:19:58.171Z,43.96
2018-12-12T19:22:40.001Z,44.01
2018-12-12T19:25:06.766Z,43.88
2018-12-12T19:27:32.716Z,44.01
2018-12-12T19:29:58.674Z,43.91
2018-12-12T19:32:24.967Z,44.09
2018-12-12T19:34:52.001Z,44.11
2018-12-12T19:37:18.919Z,44.14
2018-12-12T19:39:44.890Z,44.25
2018-12-12T19:42:12.653Z,44.09
2018-12-12T19:44:38.603Z,44.14
2018-12-12T19:47:04.605Z,44.23
2018-12-12T19:49:31.519Z,44.11
2018-12-12T19:51:57.509Z,44.34
2018-12-12T19:54:23.462Z,44.45
2018-12-12T19:56:49.454Z,44.42
2018-12-12T19:59:15.370Z,44.65
2018-12-12T20:01:42.348Z,44.39
2018-12-12T20:04:08.279Z,44.55
2018-12-12T20:06:35.203Z,44.42
2018-12-12T20:09:02.144Z,44.29
2018-12-12T20:11:28.098Z,44.60
2018-12-12T20:13:54.119Z,44.91
2018-12-12T20:16:21.057Z,45.01
2018-12-12T20:18:47.809Z,44.70
2018-12-12T20:21:14.743Z,44.63
2018-12-12T20:23:40.722Z,45.05
2018-12-12T20:26:07.691Z,44.95
2018-12-12T20:28:33.641Z,44.81
2018-12-12T20:30:59.580Z,45.22
2018-12-12T20:33:26.440Z,45.18
2018-12-12T20:35:53.222Z,44.86
2018-12-12T20:38:19.980Z,44.51
2018-12-12T20:40:46.776Z,44.76
2018-12-12T20:43:13.571Z,44.78
2018-12-12T20:45:39.520Z,44.99
2018-12-12T20:48:05.610Z,45.08
2018-12-12T20:50:32.420Z,44.95
2018-12-12T20:52:58.367Z,45.14
2018-12-12T20:55:25.282Z,45.17
2018-12-12T20:57:52.181Z,44.95
2018-12-12T21:00:19.006Z,45.08
2018-12-12T21:02:44.935Z,44.72
2018-12-12T21:05:10.885Z,44.71
2018-12-12T21:07:36.831Z,44.82
2018-12-12T21:10:03.514Z,44.65
2018-12-12T21:12:29.501Z,45.05
2018-12-12T21:14:55.448Z,44.81
2018-12-12T21:19:58.522Z,44.65
2018-12-12T21:22:24.499Z,44.65
2018-12-12T21:24:51.354Z,44.79
2018-12-12T21:27:18.177Z,44.76
2018-12-12T21:29:44.917Z,45.12
2018-12-12T21:32:10.895Z,44.45
2018-12-12T21:34:36.833Z,44.52
2018-12-12T21:37:02.785Z,44.63
2018-12-12T21:39:28.724Z,44.88
2018-12-12T21:41:54.661Z,44.79
2018-12-12T21:44:21.624Z,44.63
2018-12-12T21:46:47.601Z,44.52
2018-12-12T21:49:13.710Z,45.01
2018-12-12T21:51:39.639Z,45.04
2018-12-12T21:54:05.580Z,44.80
2018-12-12T21:56:31.519Z,44.70
2018-12-12T21:58:57.460Z,45.01
2018-12-12T22:01:23.399Z,45.03
2018-12-12T22:03:49.477Z,45.11
2018-12-12T22:06:15.417Z,44.84
2018-12-12T22:08:41.351Z,44.97
2018-12-12T22:11:07.291Z,44.88
2018-12-12T22:13:33.256Z,44.97
2018-12-12T22:15:59.192Z,45.08
2018-12-12T22:18:25.141Z,45.24
2018-12-12T22:20:51.101Z,45.29
2018-12-12T22:23:17.093Z,45.50
2018-12-12T22:25:43.910Z,45.24
2018-12-12T22:28:09.885Z,45.23
2018-12-12T22:30:36.649Z,45.38
2018-12-12T22:33:02.590Z,45.44
2018-12-12T22:35:29.580Z,45.12
2018-12-12T22:37:55.565Z,45.62
2018-12-12T22:40:21.503Z,45.67
2018-12-12T22:42:48.321Z,45.37
2018-12-12T22:45:14.242Z,45.75
2018-12-12T22:47:40.328Z,45.48
2018-12-12T22:50:06.271Z,45.55
2018-12-12T22:52:32.520Z,45.51
2018-12-12T22:54:58.456Z,45.50
2018-12-12T22:57:24.431Z,45.65
2018-12-12T22:59:50.407Z,45.61
2018-12-12T23:02:16.441Z,45.63
2018-12-12T23:04:43.355Z,45.70
2018-12-12T23:07:09.295Z,45.56
2018-12-12T23:09:35.279Z,45.57
2018-12-12T23:12:02.659Z,45.86
2018-12-12T23:14:28.641Z,45.49
2018-12-12T23:16:54.607Z,45.44
2018-12-12T23:19:20.560Z,45.79
2018-12-12T23:21:46.590Z,45.60
2018-12-12T23:24:12.658Z,45.42
2018-12-12T23:26:38.713Z,45.80
2018-12-12T23:29:04.686Z,45.75
2018-12-12T23:31:31.577Z,45.70
2018-12-12T23:33:57.516Z,45.58
2018-12-12T23:36:26.948Z,45.68
2018-12-12T23:38:51.497Z,45.68
2018-12-12T23:41:18.277Z,45.82
2018-12-12T23:43:44.228Z,45.78
2018-12-12T23:46:10.222Z,45.71
2018-12-12T23:48:36.975Z,45.86
2018-12-12T23:51:03.809Z,45.52
2018-12-12T23:53:29.790Z,45.87
2018-12-12T23:55:55.730Z,45.57
2018-12-12T23:58:22.661Z,45.51
